Time;durP1;ratioP1;P1;durP2;ratioP2;P2;SDS_P1;SDS_P2;PMS_P1;PMS_P2;Temp;Humidity;BMP_temperature;BMP_pressure;BME280_temperature;BME280_humidity;BME280_pressure;Samples;Min_cycle;Max_cycle;Signal;HPM_P1;HPM_P2
2022/06/10 00:01:09;;;;;;;4.75;1.90;;;17.60;97.50;;;;;;5046997;28;20070;-93
2022/06/10 00:03:36;;;;;;;7.35;2.05;;;17.50;97.50;;;;;;5058867;28;20025;-92
2022/06/10 00:06:09;;;;;;;8.07;2.17;;;17.50;97.60;;;;;;5063197;28;20021;-92
2022/06/10 00:08:41;;;;;;;16.20;2.45;;;17.50;97.80;;;;;;5051870;28;20027;-92
2022/06/10 00:11:08;;;;;;;11.10;3.33;;;17.50;98.00;;;;;;5068948;28;20028;-92
2022/06/10 00:13:39;;;;;;;8.35;2.67;;;17.50;98.00;;;;;;5068821;28;20028;-93
2022/06/10 00:16:07;;;;;;;8.30;2.67;;;17.40;98.00;;;;;;5061004;28;20048;-93
2022/06/10 00:18:37;;;;;;;9.88;2.30;;;17.40;98.10;;;;;;5082539;28;20066;-92
2022/06/10 00:21:07;;;;;;;8.90;2.45;;;17.40;98.10;;;;;;5047326;28;20028;-92
2022/06/10 00:23:36;;;;;;;7.75;2.28;;;17.30;98.10;;;;;;5064455;28;20035;-91
2022/06/10 00:26:02;;;;;;;10.13;2.50;;;17.30;98.30;;;;;;5063251;28;20028;-92
2022/06/10 00:28:28;;;;;;;7.80;2.40;;;17.30;98.50;;;;;;5063709;28;20150;-92
2022/06/10 00:30:54;;;;;;;10.88;2.60;;;17.30;98.60;;;;;;5062406;28;20032;-93
2022/06/10 00:33:23;;;;;;;6.35;2.50;;;17.20;98.70;;;;;;5060052;28;20025;-91
2022/06/10 00:35:49;;;;;;;4.47;1.95;;;17.20;98.70;;;;;;5058083;28;20037;-92
2022/06/10 00:38:21;;;;;;;7.97;2.53;;;17.20;98.80;;;;;;5055426;28;20354;-92
2022/06/10 00:40:51;;;;;;;7.57;2.63;;;17.20;99.00;;;;;;5038942;28;20123;-91
2022/06/10 00:43:19;;;;;;;6.15;2.42;;;17.10;99.10;;;;;;5055602;28;20025;-93
2022/06/10 00:46:01;;;;;;;7.82;2.60;;;17.10;99.20;;;;;;5047028;28;20465;-91
2022/06/10 00:48:29;;;;;;;10.80;2.80;;;17.10;99.20;;;;;;5039421;28;20036;-92
2022/06/10 00:50:57;;;;;;;5.90;2.25;;;17.00;99.20;;;;;;5055567;28;20154;-92
2022/06/10 00:53:29;;;;;;;9.65;2.67;;;17.00;99.40;;;;;;5052819;28;20025;-92
2022/06/10 00:55:56;;;;;;;7.20;2.75;;;17.00;99.50;;;;;;5066341;28;20125;-91
2022/06/10 00:58:41;;;;;;;9.35;2.20;;;16.90;99.60;;;;;;5036738;28;20523;-92
2022/06/10 01:01:11;;;;;;;9.02;2.33;;;16.90;99.60;;;;;;5050348;28;20032;-91
2022/06/10 01:03:36;;;;;;;10.15;2.33;;;16.90;99.80;;;;;;5074111;28;20084;-91
2022/06/10 01:06:02;;;;;;;7.80;2.90;;;16.90;99.80;;;;;;5055953;28;20059;-91
2022/06/10 01:08:31;;;;;;;7.93;2.40;;;16.80;99.80;;;;;;5056302;28;20156;-93
2022/06/10 01:11:24;;;;;;;8.88;2.40;;;16.80;99.90;;;;;;5055970;28;20127;-92
2022/06/10 01:14:30;;;;;;;7.32;2.72;;;16.80;99.90;;;;;;5055948;28;20089;-92
2022/06/10 01:17:23;;;;;;;6.75;2.45;;;16.70;99.90;;;;;;5018730;28;20033;-92
2022/06/10 01:20:25;;;;;;;7.95;2.67;;;16.70;99.90;;;;;;5056017;28;20056;-92
2022/06/10 01:23:02;;;;;;;4.90;2.70;;;16.60;99.90;;;;;;5044134;28;20029;-91
2022/06/10 01:25:30;;;;;;;7.80;2.47;;;16.60;99.90;;;;;;5055388;28;20021;-93
2022/06/10 01:28:13;;;;;;;10.23;2.85;;;16.60;99.90;;;;;;5055054;28;20483;-93
2022/06/10 01:30:57;;;;;;;7.82;2.92;;;16.60;99.90;;;;;;5054596;28;20112;-92
2022/06/10 01:33:40;;;;;;;6.30;2.28;;;16.50;99.90;;;;;;5056199;28;20029;-91
2022/06/10 01:36:28;;;;;;;10.05;2.88;;;16.50;99.90;;;;;;5048665;28;20016;-92
2022/06/10 01:39:09;;;;;;;8.90;3.22;;;16.50;99.90;;;;;;5042383;28;20059;-92
2022/06/10 01:41:37;;;;;;;9.82;2.83;;;16.50;99.90;;;;;;5058406;28;20489;-91
2022/06/10 01:44:20;;;;;;;9.35;2.90;;;16.50;99.90;;;;;;5060072;28;20047;-91
2022/06/10 01:47:17;;;;;;;5.22;2.40;;;16.40;99.90;;;;;;5077143;28;20096;-91
2022/06/10 01:49:54;;;;;;;7.28;2.60;;;16.40;99.90;;;;;;5024931;28;20033;-92
2022/06/10 01:52:37;;;;;;;7.97;2.63;;;16.40;99.90;;;;;;5059740;28;20044;-92
2022/06/10 01:55:26;;;;;;;8.48;3.35;;;16.30;99.90;;;;;;5077135;28;20024;-92
2022/06/10 01:58:06;;;;;;;8.50;3.08;;;16.30;99.90;;;;;;5064438;28;20103;-92
2022/06/10 02:00:34;;;;;;;8.60;3.10;;;16.20;99.90;;;;;;5076903;28;20115;-91
2022/06/10 02:03:21;;;;;;;6.70;2.70;;;16.20;99.90;;;;;;5058856;28;20074;-93
2022/06/10 02:05:52;;;;;;;10.38;3.10;;;16.20;99.90;;;;;;5059302;28;20025;-93
2022/06/10 02:08:35;;;;;;;8.98;3.22;;;16.20;99.90;;;;;;5058953;28;20025;-92
2022/06/10 02:11:13;;;;;;;11.10;3.78;;;16.10;99.90;;;;;;5055523;28;20039;-93
2022/06/10 02:13:56;;;;;;;8.70;3.05;;;16.10;99.90;;;;;;5050450;28;20028;-92
2022/06/10 02:16:33;;;;;;;5.82;2.55;;;16.10;99.90;;;;;;5042642;28;20027;-93
2022/06/10 02:19:17;;;;;;;16.45;3.33;;;16.10;99.90;;;;;;5047594;28;20020;-93
2022/06/10 02:21:48;;;;;;;7.22;3.17;;;16.00;99.90;;;;;;5065542;28;20435;-93
2022/06/10 02:24:30;;;;;;;8.68;2.80;;;16.00;99.90;;;;;;5062460;28;20048;-92
2022/06/10 02:27:04;;;;;;;8.35;3.60;;;16.00;99.90;;;;;;5058968;28;20074;-92
2022/06/10 02:29:37;;;;;;;8.80;3.75;;;16.00;99.90;;;;;;5052860;28;20373;-91
2022/06/10 02:32:15;;;;;;;9.73;2.80;;;16.00;99.90;;;;;;5055779;28;20461;-91
2022/06/10 02:34:41;;;;;;;10.35;3.28;;;15.90;99.90;;;;;;5042056;28;20016;-92
2022/06/10 02:37:38;;;;;;;11.85;3.28;;;15.90;99.90;;;;;;5048047;28;20468;-93
2022/06/10 02:40:12;;;;;;;7.55;2.70;;;15.90;99.90;;;;;;5065676;28;20464;-92
2022/06/10 02:42:46;;;;;;;10.05;2.80;;;15.90;99.90;;;;;;5056029;28;20025;-93
2022/06/10 02:45:30;;;;;;;7.72;2.95;;;15.90;99.90;;;;;;5047731;28;20067;-92
2022/06/10 02:48:20;;;;;;;9.63;3.22;;;15.90;99.90;;;;;;5054590;28;20029;-92
2022/06/10 02:50:46;;;;;;;10.45;3.55;;;15.90;99.90;;;;;;5044220;28;20031;-91
2022/06/10 02:53:14;;;;;;;11.60;3.13;;;15.90;99.90;;;;;;5074988;28;20096;-93
2022/06/10 02:55:41;;;;;;;10.18;2.72;;;15.90;99.90;;;;;;5058619;28;20021;-93
2022/06/10 03:01:27;;;;;;;10.05;2.50;;;15.90;99.90;;;;;;5074129;28;20040;-91
2022/06/10 03:04:26;;;;;;;8.73;2.60;;;15.80;99.90;;;;;;5045331;28;20029;-91
2022/06/10 03:07:21;;;;;;;10.68;2.90;;;15.80;99.90;;;;;;5069491;28;20025;-90
2022/06/10 03:10:27;;;;;;;16.50;3.00;;;15.80;99.90;;;;;;5068635;28;20029;-92
2022/06/10 03:13:13;;;;;;;9.55;2.50;;;15.80;99.90;;;;;;5044945;28;20115;-92
2022/06/10 03:16:03;;;;;;;8.45;2.53;;;15.80;99.90;;;;;;5058300;28;20035;-93
2022/06/10 03:19:09;;;;;;;9.82;2.75;;;15.70;99.90;;;;;;5076047;28;20024;-91
2022/06/10 03:21:41;;;;;;;11.10;2.45;;;15.70;99.90;;;;;;5057848;28;20039;-93
2022/06/10 03:24:20;;;;;;;10.48;2.80;;;15.70;99.90;;;;;;5058327;28;20025;-92
2022/06/10 03:27:03;;;;;;;10.30;3.03;;;15.70;99.90;;;;;;5058077;28;20025;-92
2022/06/10 03:29:53;;;;;;;13.07;2.63;;;15.80;99.90;;;;;;5075166;28;20476;-92
2022/06/10 03:32:37;;;;;;;8.35;2.83;;;15.80;99.90;;;;;;5074980;28;20059;-92
2022/06/10 03:35:19;;;;;;;12.23;2.90;;;15.80;99.90;;;;;;5063990;28;20050;-90
2022/06/10 03:37:45;;;;;;;9.60;2.55;;;15.80;99.90;;;;;;5057244;28;20036;-91
2022/06/10 03:40:26;;;;;;;9.27;2.70;;;15.80;99.90;;;;;;5057322;28;20040;-92
2022/06/10 03:42:55;;;;;;;13.93;2.80;;;15.80;99.90;;;;;;5057591;28;20055;-90
2022/06/10 03:45:28;;;;;;;8.43;3.03;;;15.80;99.90;;;;;;5057426;28;20029;-90
2022/06/10 03:47:57;;;;;;;15.38;2.90;;;15.80;99.90;;;;;;5048637;28;20021;-91
2022/06/10 03:50:27;;;;;;;7.75;2.75;;;15.90;99.90;;;;;;5026557;28;20395;-91
2022/06/10 03:52:53;;;;;;;7.00;2.63;;;15.90;99.90;;;;;;5057050;28;20056;-92
2022/06/10 03:55:20;;;;;;;8.93;2.33;;;15.90;99.90;;;;;;5056854;28;20012;-90
2022/06/10 03:57:47;;;;;;;11.60;2.38;;;15.90;99.90;;;;;;5057206;28;20013;-90
2022/06/10 04:00:23;;;;;;;10.32;2.45;;;16.00;99.90;;;;;;5050754;28;20056;-91
2022/06/10 04:02:49;;;;;;;11.18;2.30;;;16.00;99.90;;;;;;5036968;28;20070;-90
2022/06/10 04:05:15;;;;;;;11.10;2.95;;;16.00;99.90;;;;;;5068259;28;20070;-90
2022/06/10 04:07:43;;;;;;;11.70;3.30;;;16.00;99.90;;;;;;5039563;28;20023;-94
2022/06/10 04:10:16;;;;;;;6.68;2.10;;;16.00;99.90;;;;;;5038241;28;20055;-92
2022/06/10 04:12:42;;;;;;;10.43;2.92;;;16.00;99.90;;;;;;5045428;28;20033;-91
2022/06/10 04:15:14;;;;;;;10.52;2.90;;;16.00;99.90;;;;;;5050458;28;20013;-91
2022/06/10 04:17:45;;;;;;;10.15;2.70;;;16.00;99.90;;;;;;5078613;28;20016;-92
2022/06/10 04:20:20;;;;;;;9.45;2.92;;;16.00;99.90;;;;;;5077112;28;20025;-92
2022/06/10 04:22:46;;;;;;;10.48;2.92;;;15.90;99.90;;;;;;5074838;28;20031;-91
2022/06/10 04:25:12;;;;;;;7.93;3.00;;;15.90;99.90;;;;;;5080352;28;20052;-91
2022/06/10 04:27:39;;;;;;;9.85;2.83;;;15.90;99.90;;;;;;5077656;28;20017;-90
2022/06/10 04:30:11;;;;;;;11.02;3.13;;;15.90;99.90;;;;;;5065770;28;20036;-93
2022/06/10 04:32:39;;;;;;;10.82;2.90;;;15.90;99.90;;;;;;5056340;28;20021;-92
2022/06/10 04:35:05;;;;;;;13.43;3.22;;;15.90;99.90;;;;;;5047717;28;20139;-92
2022/06/10 04:37:33;;;;;;;13.90;3.10;;;15.90;99.90;;;;;;5056830;28;20056;-92
2022/06/10 04:39:58;;;;;;;13.73;3.30;;;15.90;99.90;;;;;;5056821;28;20029;-92
2022/06/10 04:42:25;;;;;;;9.68;3.10;;;15.90;99.90;;;;;;5057255;28;20112;-91
2022/06/10 04:44:53;;;;;;;10.30;3.20;;;15.80;99.90;;;;;;5074455;28;20103;-91
2022/06/10 04:47:21;;;;;;;10.38;3.20;;;15.80;99.90;;;;;;5045822;28;20033;-93
2022/06/10 04:49:47;;;;;;;10.48;3.30;;;15.80;99.90;;;;;;5055279;28;20032;-89
2022/06/10 04:52:13;;;;;;;10.55;3.38;;;15.80;99.90;;;;;;5054603;28;20127;-91
2022/06/10 04:54:38;;;;;;;12.95;3.65;;;15.80;99.90;;;;;;5056364;28;20021;-92
2022/06/10 04:57:04;;;;;;;15.38;4.15;;;15.80;99.90;;;;;;5036375;28;20120;-92
2022/06/10 04:59:30;;;;;;;11.77;3.28;;;15.70;99.90;;;;;;5047141;28;20028;-91
2022/06/10 05:01:56;;;;;;;16.15;4.05;;;15.80;99.90;;;;;;5057049;28;20460;-91
2022/06/10 05:04:24;;;;;;;10.63;4.03;;;15.70;99.90;;;;;;5055824;28;20032;-92
2022/06/10 05:06:52;;;;;;;12.05;3.88;;;15.80;99.90;;;;;;5056141;28;20434;-92
2022/06/10 05:09:17;;;;;;;10.57;3.80;;;15.80;99.90;;;;;;5056163;28;20481;-89
2022/06/10 05:11:43;;;;;;;12.25;3.65;;;15.80;99.90;;;;;;5048939;28;20013;-91
2022/06/10 05:14:10;;;;;;;13.20;3.67;;;15.70;99.90;;;;;;5042319;28;20027;-91
2022/06/10 05:16:36;;;;;;;10.30;3.80;;;15.70;99.90;;;;;;5059184;28;20112;-91
2022/06/10 05:19:02;;;;;;;9.70;3.50;;;15.80;99.90;;;;;;5056497;28;20490;-92
2022/06/10 05:21:28;;;;;;;13.00;3.50;;;15.70;99.90;;;;;;5048318;28;20049;-92
2022/06/10 05:23:54;;;;;;;10.75;4.28;;;15.70;99.90;;;;;;5040343;28;20025;-91
2022/06/10 05:26:19;;;;;;;14.75;3.97;;;15.80;99.90;;;;;;5066355;28;20465;-90
2022/06/10 05:28:54;;;;;;;12.10;3.78;;;15.80;99.90;;;;;;5043046;28;20484;-88
2022/06/10 05:31:22;;;;;;;11.13;3.80;;;15.80;99.90;;;;;;5058193;28;20124;-91
2022/06/10 05:36:33;;;;;;;7.57;3.40;;;15.80;99.90;;;;;;5066061;28;20495;-93
2022/06/10 05:39:02;;;;;;;9.13;3.38;;;15.80;99.90;;;;;;5071833;28;20044;-91
2022/06/10 05:44:12;;;;;;;12.43;4.05;;;15.90;99.90;;;;;;5045648;28;20048;-91
2022/06/10 05:46:38;;;;;;;8.07;3.50;;;16.00;99.90;;;;;;5044002;28;20033;-93
2022/06/10 05:49:05;;;;;;;12.80;4.18;;;16.00;99.90;;;;;;5054858;28;20020;-91
2022/06/10 05:51:33;;;;;;;9.77;3.08;;;16.00;99.90;;;;;;5075314;28;20052;-92
2022/06/10 05:53:59;;;;;;;8.40;3.58;;;16.00;99.90;;;;;;5083708;28;20058;-90
2022/06/10 05:56:30;;;;;;;13.50;4.18;;;16.10;99.90;;;;;;5065782;28;20111;-90
2022/06/10 05:58:56;;;;;;;11.73;3.50;;;16.10;99.90;;;;;;5043841;28;20025;-93
2022/06/10 06:01:22;;;;;;;7.88;3.10;;;16.10;99.90;;;;;;5050681;28;20021;-92
2022/06/10 06:03:48;;;;;;;11.05;3.35;;;16.10;99.90;;;;;;5062580;28;20375;-92
2022/06/10 06:06:15;;;;;;;10.50;3.60;;;16.10;99.90;;;;;;5053855;28;20464;-92
2022/06/10 06:08:40;;;;;;;10.77;3.03;;;16.20;99.90;;;;;;5052520;28;20052;-90
2022/06/10 06:11:09;;;;;;;12.15;3.70;;;16.20;99.90;;;;;;5054755;28;20052;-91
2022/06/10 06:13:34;;;;;;;9.20;3.38;;;16.20;99.90;;;;;;5043315;28;20025;-93
2022/06/10 06:16:00;;;;;;;18.35;4.47;;;16.20;99.90;;;;;;5041986;28;20062;-91
2022/06/10 06:18:26;;;;;;;12.25;3.25;;;16.30;99.90;;;;;;5045226;28;20082;-92
2022/06/10 06:20:52;;;;;;;12.15;3.20;;;16.30;99.90;;;;;;5050291;28;20024;-91
2022/06/10 06:23:18;;;;;;;11.35;3.55;;;16.30;99.90;;;;;;5074809;28;20510;-91
2022/06/10 06:25:44;;;;;;;13.90;3.78;;;16.40;99.90;;;;;;5042538;28;20025;-91
2022/06/10 06:28:10;;;;;;;8.07;3.42;;;16.40;99.90;;;;;;5058520;28;20151;-91
2022/06/10 06:30:37;;;;;;;16.55;4.78;;;16.40;99.90;;;;;;5064914;28;20048;-93
2022/06/10 06:33:07;;;;;;;14.23;3.78;;;16.50;99.90;;;;;;5084465;28;20029;-91
2022/06/10 06:35:35;;;;;;;14.68;3.90;;;16.50;99.90;;;;;;5065312;28;20086;-92
2022/06/10 06:38:02;;;;;;;13.30;3.35;;;16.50;99.90;;;;;;5058181;28;20021;-92
2022/06/10 06:40:29;;;;;;;12.50;3.90;;;16.60;99.90;;;;;;5064231;28;20051;-92
2022/06/10 06:42:55;;;;;;;11.23;3.47;;;16.60;99.90;;;;;;5063721;28;20632;-95
2022/06/10 06:45:23;;;;;;;14.13;3.90;;;16.70;99.90;;;;;;5047247;28;20079;-93
2022/06/10 06:47:51;;;;;;;13.88;3.63;;;16.70;99.90;;;;;;5055127;28;20028;-92
2022/06/10 06:50:29;;;;;;;11.50;3.60;;;16.70;99.90;;;;;;5048634;28;20037;-93
2022/06/10 06:52:55;;;;;;;14.20;3.58;;;16.70;99.90;;;;;;5056470;28;20045;-91
2022/06/10 06:55:21;;;;;;;13.20;3.90;;;16.70;99.90;;;;;;5049784;28;20503;-92
2022/06/10 06:57:51;;;;;;;11.80;4.40;;;16.80;99.90;;;;;;5076580;28;20025;-93
2022/06/10 07:00:41;;;;;;;13.60;4.05;;;16.80;99.90;;;;;;5059190;28;20024;-94
2022/06/10 07:03:31;;;;;;;15.50;4.57;;;16.90;99.90;;;;;;5071162;28;20456;-96
2022/06/10 07:06:03;;;;;;;11.50;3.80;;;16.90;99.90;;;;;;5049434;28;20017;-94
2022/06/10 07:08:36;;;;;;;12.75;4.03;;;16.90;99.90;;;;;;5039314;28;20039;-95
2022/06/10 07:11:35;;;;;;;;;;;;;;;;;;;;;
2022/06/10 07:15:04;;;;;;;;;;;;;;;;;;;;;
2022/06/10 07:24:34;;;;;;;9.57;3.00;;;17.10;99.90;;;;;;5013857;22;20545;-90
2022/06/10 07:27:04;;;;;;;12.85;3.17;;;17.10;99.90;;;;;;5029536;28;20025;-89
2022/06/10 07:29:30;;;;;;;8.57;2.83;;;17.20;99.90;;;;;;5002037;28;20408;-88
2022/06/10 07:31:56;;;;;;;9.07;2.75;;;17.20;99.90;;;;;;5037285;28;20039;-90
2022/06/10 07:34:21;;;;;;;10.68;2.90;;;17.20;99.90;;;;;;5021147;28;20048;-91
2022/06/10 07:36:50;;;;;;;9.82;2.63;;;17.20;99.90;;;;;;5021657;28;20029;-92
2022/06/10 07:39:15;;;;;;;8.38;2.88;;;17.30;99.90;;;;;;5027607;28;20017;-90
2022/06/10 07:44:28;;;;;;;11.32;3.08;;;17.40;99.90;;;;;;5034650;28;20067;-90
2022/06/10 07:46:56;;;;;;;7.18;2.63;;;17.40;99.90;;;;;;5020939;28;20021;-90
2022/06/10 07:49:21;;;;;;;8.20;2.80;;;17.40;99.90;;;;;;5033803;28;20032;-90
2022/06/10 07:51:47;;;;;;;8.23;3.35;;;17.50;99.90;;;;;;5017444;28;20025;-90
2022/06/10 07:54:13;;;;;;;9.63;2.72;;;17.50;99.90;;;;;;5017427;28;20044;-90
2022/06/10 07:56:43;;;;;;;10.27;2.70;;;17.60;99.90;;;;;;5025839;28;20052;-90
2022/06/10 07:59:09;;;;;;;10.95;2.78;;;17.60;99.90;;;;;;5033820;28;20056;-89
2022/06/10 08:01:35;;;;;;;10.50;2.75;;;17.60;99.90;;;;;;5036674;28;20025;-89
2022/06/10 08:04:02;;;;;;;9.00;2.78;;;17.70;99.90;;;;;;5017369;28;20039;-90
2022/06/10 08:06:29;;;;;;;9.88;2.40;;;17.80;99.90;;;;;;5028358;28;20067;-89
2022/06/10 08:08:55;;;;;;;7.28;2.30;;;17.90;99.90;;;;;;5033376;28;20024;-88
2022/06/10 08:11:21;;;;;;;10.95;2.60;;;17.90;99.90;;;;;;5019267;28;20037;-88
2022/06/10 08:13:47;;;;;;;6.50;1.90;;;18.00;99.90;;;;;;5016592;28;20030;-88
2022/06/10 08:16:14;;;;;;;5.80;2.03;;;18.00;99.90;;;;;;5030272;28;20025;-89
2022/06/10 08:18:41;;;;;;;6.35;1.75;;;18.20;99.90;;;;;;5016624;28;20025;-89
2022/06/10 08:23:52;;;;;;;8.18;3.20;;;18.20;99.90;;;;;;5038735;28;20040;-88
2022/06/10 08:26:20;;;;;;;7.50;1.80;;;18.30;99.90;;;;;;5039061;28;20039;-89
2022/06/10 08:28:48;;;;;;;8.57;2.20;;;18.40;99.90;;;;;;5005856;28;20030;-87
2022/06/10 08:31:14;;;;;;;9.05;1.95;;;18.40;99.90;;;;;;5052952;28;20034;-91
2022/06/10 08:33:42;;;;;;;11.15;2.30;;;18.50;99.90;;;;;;5022860;28;20485;-88
2022/06/10 08:36:09;;;;;;;9.75;2.22;;;18.60;99.90;;;;;;5023290;28;20115;-89
2022/06/10 08:38:35;;;;;;;9.82;2.17;;;18.70;99.90;;;;;;5007178;28;20123;-89
2022/06/10 08:41:07;;;;;;;6.10;2.08;;;18.70;99.90;;;;;;5023725;28;20036;-91
2022/06/10 08:43:39;;;;;;;7.43;2.78;;;18.80;99.90;;;;;;5034836;28;20025;-88
2022/06/10 08:46:25;;;;;;;9.10;2.50;;;18.80;99.90;;;;;;5043252;28;20104;-90
2022/06/10 08:49:18;;;;;;;8.52;2.50;;;18.90;99.90;;;;;;5034187;28;20025;-90
2022/06/10 08:52:13;;;;;;;7.00;2.25;;;19.00;99.90;;;;;;5043493;28;20033;-89
2022/06/10 08:54:56;;;;;;;8.98;2.15;;;19.00;99.90;;;;;;5030400;28;20055;-92
2022/06/10 08:57:24;;;;;;;8.43;2.00;;;19.10;99.90;;;;;;5035116;28;20089;-90
2022/06/10 08:59:51;;;;;;;5.80;2.25;;;19.20;99.90;;;;;;5033065;28;20051;-90
2022/06/10 09:02:55;;;;;;;8.63;2.08;;;19.30;99.90;;;;;;5013897;28;20116;-89
2022/06/10 09:05:26;;;;;;;9.73;2.42;;;19.30;99.90;;;;;;5009281;28;20048;-90
2022/06/10 09:07:58;;;;;;;6.93;1.92;;;19.40;99.90;;;;;;5020737;28;20014;-90
2022/06/10 09:11:06;;;;;;;5.95;1.90;;;19.40;99.90;;;;;;5033606;28;20048;-90
2022/06/10 09:13:39;;;;;;;7.72;2.00;;;19.50;99.90;;;;;;5016569;28;20033;-89
2022/06/10 09:16:10;;;;;;;12.43;2.75;;;19.60;99.90;;;;;;5037583;28;20041;-90
2022/06/10 09:18:38;;;;;;;8.77;2.13;;;19.70;99.90;;;;;;5033786;28;20017;-91
2022/06/10 09:21:40;;;;;;;7.35;1.73;;;19.80;99.90;;;;;;5038506;28;20037;-89
2022/06/10 09:24:17;;;;;;;9.90;1.80;;;19.90;99.90;;;;;;5038613;28;20041;-91
2022/06/10 09:26:51;;;;;;;8.63;1.92;;;19.90;99.90;;;;;;5033656;28;20111;-89
2022/06/10 09:29:17;;;;;;;8.15;2.22;;;20.00;99.90;;;;;;5036276;28;20482;-90
2022/06/10 09:31:58;;;;;;;5.40;2.00;;;20.10;99.90;;;;;;5033160;28;20033;-90
2022/06/10 09:34:23;;;;;;;;;;;20.10;99.90;;;;;;5042058;28;20025;-90
2022/06/10 09:37:30;;;;;;;9.60;2.25;;;20.10;99.90;;;;;;5030299;28;19905;-88
2022/06/10 09:40:37;;;;;;;10.13;2.00;;;20.20;99.90;;;;;;5044448;28;20029;-88
2022/06/10 09:43:26;;;;;;;7.90;2.03;;;20.20;99.90;;;;;;5037976;28;20036;-87
2022/06/10 09:46:13;;;;;;;9.30;1.83;;;20.30;99.90;;;;;;5055056;28;20029;-88
2022/06/10 09:48:43;;;;;;;12.20;2.15;;;20.30;99.90;;;;;;5024593;28;20116;-89
2022/06/10 09:51:33;;;;;;;6.97;1.80;;;20.40;99.90;;;;;;5038459;28;20090;-89
2022/06/10 09:54:02;;;;;;;9.63;2.30;;;20.50;99.90;;;;;;5033448;28;20435;-88
2022/06/10 09:56:28;;;;;;;8.88;2.53;;;20.50;99.90;;;;;;5027509;28;20174;-88
2022/06/10 09:59:12;;;;;;;10.38;2.63;;;20.50;99.90;;;;;;5038609;28;20131;-88
2022/06/10 10:01:55;;;;;;;7.63;1.73;;;20.60;99.90;;;;;;5032598;28;20465;-89
2022/06/10 10:04:28;;;;;;;6.35;2.45;;;20.60;99.90;;;;;;5034955;28;20018;-88
2022/06/10 10:07:14;;;;;;;7.63;1.95;;;20.70;99.90;;;;;;5038295;28;20055;-90
2022/06/10 10:10:01;;;;;;;6.95;1.90;;;20.70;99.90;;;;;;5055578;28;20048;-89
2022/06/10 10:12:47;;;;;;;10.48;2.33;;;20.80;99.90;;;;;;5024237;28;20029;-89
2022/06/10 10:15:34;;;;;;;9.65;2.25;;;20.80;99.90;;;;;;5026902;28;20024;-88
2022/06/10 10:18:28;;;;;;;6.65;1.83;;;20.90;99.90;;;;;;5041015;28;20028;-89
2022/06/10 10:21:10;;;;;;;10.15;2.05;;;21.00;99.90;;;;;;5037944;28;20044;-89
2022/06/10 10:23:39;;;;;;;9.35;2.20;;;21.00;99.90;;;;;;5035420;28;20032;-94
2022/06/10 10:26:12;;;;;;;7.07;2.10;;;21.10;99.90;;;;;;5033571;28;20049;-93
2022/06/10 10:28:41;;;;;;;8.68;1.98;;;21.20;99.70;;;;;;5039265;28;20024;-93
2022/06/10 10:31:19;;;;;;;10.32;2.30;;;21.30;99.90;;;;;;5008587;28;20072;-93
2022/06/10 10:33:46;;;;;;;7.35;2.08;;;21.30;99.30;;;;;;5038558;28;20021;-92
2022/06/10 10:36:20;;;;;;;10.85;2.50;;;21.40;98.90;;;;;;5018673;28;20022;-92
2022/06/10 10:38:47;;;;;;;7.88;2.20;;;21.40;98.40;;;;;;5038465;28;20021;-92
2022/06/10 10:41:42;;;;;;;10.00;2.17;;;21.50;98.80;;;;;;5038096;28;20060;-93
2022/06/10 10:44:29;;;;;;;9.75;2.50;;;21.50;99.10;;;;;;5027252;28;20025;-91
2022/06/10 10:47:19;;;;;;;8.18;2.25;;;21.50;99.20;;;;;;5037876;28;20059;-91
2022/06/10 10:50:04;;;;;;;11.93;2.78;;;21.60;99.20;;;;;;5037507;28;20037;-92
2022/06/10 10:52:32;;;;;;;8.10;2.35;;;21.70;99.10;;;;;;5031989;28;20079;-89
2022/06/10 10:55:13;;;;;;;8.57;2.63;;;21.70;98.40;;;;;;5018227;28;20084;-92
2022/06/10 10:57:42;;;;;;;;;;;21.70;98.00;;;;;;5024867;28;20027;-90
2022/06/10 11:00:13;;;;;;;10.23;2.72;;;21.70;98.20;;;;;;5027968;28;20282;-93
2022/06/10 11:02:47;;;;;;;10.32;2.42;;;21.70;98.10;;;;;;5053777;28;20036;-90
2022/06/10 11:05:18;;;;;;;10.38;2.63;;;21.80;98.20;;;;;;5035378;28;20021;-91
2022/06/10 11:07:46;;;;;;;8.27;3.03;;;21.80;97.80;;;;;;5037771;28;20036;-91
2022/06/10 11:10:24;;;;;;;13.73;2.80;;;21.90;98.20;;;;;;5021341;28;20078;-91
2022/06/10 11:12:51;;;;;;;12.82;2.33;;;21.90;98.20;;;;;;5033483;28;20498;-92
2022/06/10 11:15:27;;;;;;;11.88;2.72;;;22.00;97.20;;;;;;5037307;28;20116;-93
2022/06/10 11:17:54;;;;;;;8.18;2.30;;;22.00;97.40;;;;;;5034935;28;20039;-91
2022/06/10 11:20:30;;;;;;;10.57;3.05;;;22.00;97.10;;;;;;5021188;28;20425;-92
2022/06/10 11:23:24;;;;;;;12.35;3.00;;;22.00;96.90;;;;;;5037938;28;20025;-91
2022/06/10 11:26:16;;;;;;;12.80;3.20;;;22.00;96.90;;;;;;5026469;28;20071;-92
2022/06/10 11:28:44;;;;;;;10.85;2.92;;;21.90;96.90;;;;;;5027951;28;20076;-92
2022/06/10 11:31:21;;;;;;;9.88;2.72;;;21.90;97.00;;;;;;5035050;28;20021;-91
2022/06/10 11:33:50;;;;;;;14.38;2.90;;;21.90;96.90;;;;;;5028006;28;20029;-91
2022/06/10 11:36:34;;;;;;;9.15;2.88;;;21.90;96.80;;;;;;5021327;28;20021;-91
2022/06/10 11:39:29;;;;;;;10.65;2.70;;;21.90;96.70;;;;;;5017950;28;20025;-91
2022/06/10 11:42:07;;;;;;;7.45;2.03;;;21.90;97.00;;;;;;5024665;28;20048;-91
2022/06/10 11:44:43;;;;;;;9.15;2.42;;;21.90;97.00;;;;;;5023693;28;20035;-92
2022/06/10 11:47:22;;;;;;;8.60;2.75;;;21.90;97.30;;;;;;5023586;28;20338;-91
2022/06/10 11:50:02;;;;;;;10.02;2.67;;;21.90;97.50;;;;;;5030210;28;20033;-92
2022/06/10 11:52:46;;;;;;;10.48;2.30;;;21.90;97.80;;;;;;5030154;28;20028;-91
2022/06/10 11:55:25;;;;;;;8.48;2.65;;;21.90;97.40;;;;;;5032958;28;20075;-91
2022/06/10 12:00:46;;;;;;;9.75;2.88;;;22.10;97.90;;;;;;5055277;28;20560;-91
2022/06/10 12:03:32;;;;;;;9.07;2.70;;;22.10;97.60;;;;;;5034987;28;20025;-91
2022/06/10 12:06:24;;;;;;;9.57;2.60;;;22.20;97.70;;;;;;5022080;28;20112;-92
2022/06/10 12:09:24;;;;;;;9.65;2.78;;;22.30;98.00;;;;;;5033962;28;20017;-91
2022/06/10 12:11:52;;;;;;;8.00;2.30;;;22.40;97.40;;;;;;5036698;28;20024;-91
2022/06/10 12:14:25;;;;;;;8.32;2.80;;;22.50;97.40;;;;;;5030024;28;20588;-92
2022/06/10 12:17:19;;;;;;;10.20;2.60;;;22.60;97.40;;;;;;5036571;28;20063;-91
2022/06/10 12:20:05;;;;;;;9.15;2.83;;;22.60;97.40;;;;;;5027377;28;20041;-92
2022/06/10 12:22:33;;;;;;;10.27;2.72;;;22.70;97.50;;;;;;5031383;28;20482;-91
2022/06/10 12:24:59;;;;;;;8.60;3.30;;;22.80;97.30;;;;;;5029843;28;20099;-92
2022/06/10 12:27:45;;;;;;;10.02;3.00;;;22.90;97.40;;;;;;5016208;28;20128;-92
2022/06/10 12:30:22;;;;;;;8.13;2.92;;;22.90;96.80;;;;;;5018452;28;20056;-91
2022/06/10 12:33:08;;;;;;;11.15;3.33;;;22.90;96.60;;;;;;5019580;28;20044;-92
2022/06/10 12:35:37;;;;;;;9.32;2.97;;;22.90;96.20;;;;;;5030645;28;20051;-92
2022/06/10 12:38:15;;;;;;;8.93;2.70;;;22.90;95.80;;;;;;5036094;28;20071;-91
2022/06/10 12:40:43;;;;;;;10.75;3.10;;;22.90;96.10;;;;;;5036235;28;20057;-90
2022/06/10 12:43:20;;;;;;;11.68;4.05;;;22.90;96.10;;;;;;5035955;28;20036;-92
2022/06/10 12:45:53;;;;;;;11.48;2.92;;;22.90;96.20;;;;;;5036244;28;20017;-91
2022/06/10 12:48:23;;;;;;;10.98;3.10;;;23.00;96.50;;;;;;5022867;28;20087;-92
2022/06/10 12:51:23;;;;;;;8.77;2.63;;;23.10;96.90;;;;;;5025151;28;20163;-90
2022/06/10 12:53:55;;;;;;;11.43;3.40;;;23.20;96.40;;;;;;5033229;28;20463;-91
2022/06/10 12:56:41;;;;;;;10.50;3.42;;;23.30;96.50;;;;;;5036261;28;20162;-91
2022/06/10 12:59:07;;;;;;;9.27;3.00;;;23.40;96.00;;;;;;5047633;28;20094;-92
2022/06/10 13:01:33;;;;;;;9.45;2.63;;;23.40;95.70;;;;;;5027033;28;20119;-91
2022/06/10 13:04:14;;;;;;;7.90;2.70;;;23.40;95.70;;;;;;5027817;28;20062;-92
2022/06/10 13:06:43;;;;;;;7.75;2.67;;;23.40;95.60;;;;;;5032563;28;20140;-91
2022/06/10 13:09:12;;;;;;;6.38;2.30;;;23.50;95.70;;;;;;5049796;28;20174;-91
2022/06/10 13:12:07;;;;;;;12.18;2.78;;;23.50;96.00;;;;;;5032180;28;20051;-92
2022/06/10 13:14:35;;;;;;;8.82;2.78;;;23.50;95.80;;;;;;5027783;28;20037;-91
2022/06/10 13:17:25;;;;;;;8.05;2.97;;;23.50;95.60;;;;;;5023646;28;20029;-90
2022/06/10 13:19:54;;;;;;;9.45;3.38;;;23.60;95.50;;;;;;5023706;28;20021;-91
2022/06/10 13:22:19;;;;;;;7.18;3.03;;;23.60;95.30;;;;;;5022132;28;20029;-91
2022/06/10 13:24:54;;;;;;;9.50;2.67;;;23.60;95.40;;;;;;5026703;28;20044;-91
2022/06/10 13:27:26;;;;;;;8.63;3.10;;;23.70;95.10;;;;;;5035415;28;20036;-90
2022/06/10 13:30:09;;;;;;;8.40;3.35;;;23.70;94.30;;;;;;5020920;28;20029;-88
2022/06/10 13:32:40;;;;;;;9.85;3.15;;;23.80;94.60;;;;;;5021360;28;20030;-88
2022/06/10 13:35:06;;;;;;;6.47;3.00;;;23.90;94.70;;;;;;5032500;28;20471;-88
2022/06/10 13:37:38;;;;;;;11.27;3.90;;;24.00;94.60;;;;;;5032667;28;20021;-88
2022/06/10 13:40:07;;;;;;;9.35;4.20;;;24.10;94.10;;;;;;5024725;28;20019;-88
2022/06/10 13:42:38;;;;;;;7.40;3.05;;;24.20;93.80;;;;;;5021554;28;20044;-88
2022/06/10 13:45:45;;;;;;;7.63;3.10;;;24.20;93.20;;;;;;5035336;28;20022;-89
2022/06/10 13:48:23;;;;;;;7.90;2.90;;;24.20;93.00;;;;;;5023260;28;20106;-88